createdAt,value
2024-04-25T03:31:30.060Z,5.68
2024-04-25T03:33:56.973Z,5.12
2024-04-25T03:36:23.890Z,5.32
2024-04-25T03:38:50.787Z,5.09
2024-04-25T03:41:17.801Z,4.92
2024-04-25T03:43:44.749Z,4.39
2024-04-25T03:46:11.707Z,4.24
2024-04-25T03:48:38.755Z,4.46
2024-04-25T03:51:05.722Z,4.99
2024-04-25T03:53:32.696Z,4.68
2024-04-25T03:55:59.704Z,4.67
2024-04-25T03:58:26.646Z,4.30
2024-04-25T04:00:53.637Z,4.70
2024-04-25T04:03:20.643Z,4.15
2024-04-25T04:05:47.614Z,4.00
2024-04-25T04:08:15.000Z,4.19
2024-04-25T04:10:41.946Z,4.27
2024-04-25T04:13:08.860Z,4.34
2024-04-25T04:15:35.778Z,4.42
2024-04-25T04:18:02.764Z,4.15
2024-04-25T04:20:29.847Z,4.39
2024-04-25T04:22:56.792Z,4.14
2024-04-25T04:25:23.698Z,4.26
2024-04-25T04:27:50.620Z,4.19
2024-04-25T04:30:17.536Z,4.00
2024-04-25T04:32:44.653Z,4.10
2024-04-25T04:35:11.686Z,4.11
2024-04-25T04:37:38.611Z,4.09
2024-04-25T04:40:05.534Z,3.98
2024-04-25T04:42:32.463Z,3.95
2024-04-25T04:44:59.402Z,3.73
2024-04-25T04:47:26.410Z,3.45
2024-04-25T04:49:53.383Z,3.60
2024-04-25T04:52:20.330Z,3.68
2024-04-25T04:54:47.270Z,3.71
2024-04-25T04:57:14.204Z,3.62
2024-04-25T04:59:41.128Z,3.48
2024-04-25T05:02:08.144Z,3.40
2024-04-25T05:04:35.095Z,3.44
2024-04-25T05:07:01.994Z,3.67
2024-04-25T05:09:28.946Z,3.62
2024-04-25T05:11:55.943Z,3.84
2024-04-25T05:14:22.935Z,3.85
2024-04-25T05:16:49.860Z,3.44
2024-04-25T05:19:16.785Z,3.74
2024-04-25T05:21:43.688Z,4.15
2024-04-25T05:24:10.686Z,4.03
2024-04-25T05:26:37.745Z,3.68
2024-04-25T05:29:04.711Z,3.74
2024-04-25T05:31:31.648Z,3.52
2024-04-25T05:33:58.603Z,3.54
2024-04-25T05:36:25.579Z,3.65
2024-04-25T05:38:52.483Z,3.55
2024-04-25T05:41:19.399Z,3.50
2024-04-25T05:43:46.324Z,3.77
2024-04-25T05:46:13.282Z,3.55
2024-04-25T05:48:40.299Z,3.41
2024-04-25T05:51:07.235Z,3.28
2024-04-25T05:53:34.265Z,3.70
2024-04-25T05:56:01.222Z,3.60
2024-04-25T05:58:28.155Z,3.53
2024-04-25T06:00:55.110Z,3.61
2024-04-25T06:03:22.104Z,3.48
2024-04-25T06:05:49.211Z,3.44
2024-04-25T06:08:16.270Z,3.78
2024-04-25T06:10:43.294Z,3.65
2024-04-25T06:13:10.327Z,3.61
2024-04-25T06:15:37.307Z,3.84
2024-04-25T06:18:04.318Z,3.64
2024-04-25T06:20:31.320Z,4.22
2024-04-25T06:22:58.330Z,5.45
2024-04-25T06:25:25.285Z,4.47
2024-04-25T06:27:52.240Z,3.99
2024-04-25T06:30:19.160Z,4.16
2024-04-25T06:32:46.201Z,4.32
2024-04-25T06:35:13.232Z,4.29
2024-04-25T06:37:40.184Z,4.27
2024-04-25T06:40:07.115Z,4.85
2024-04-25T06:42:34.041Z,5.16
2024-04-25T06:45:01.042Z,4.34
2024-04-25T06:47:28.063Z,3.68
2024-04-25T06:49:55.023Z,4.57
2024-04-25T06:52:21.942Z,6.35
2024-04-25T06:54:48.867Z,5.64
2024-04-25T06:57:15.826Z,5.11
2024-04-25T06:59:45.716Z,4.64
2024-04-25T07:02:15.066Z,4.24
2024-04-25T07:04:42.017Z,4.49
2024-04-25T07:07:08.933Z,4.44
2024-04-25T07:09:35.848Z,4.51
2024-04-25T07:12:02.904Z,4.38
2024-04-25T07:14:29.949Z,4.19
2024-04-25T07:16:56.889Z,4.44
2024-04-25T07:19:23.857Z,4.56
2024-04-25T07:21:50.824Z,4.73
2024-04-25T07:24:17.784Z,4.70
2024-04-25T07:26:44.749Z,4.76
2024-04-25T07:29:11.752Z,4.54
2024-04-25T07:31:38.695Z,4.66
2024-04-25T07:34:05.782Z,4.98
2024-04-25T07:36:32.837Z,5.17
2024-04-25T07:38:59.798Z,5.73
2024-04-25T07:41:26.819Z,5.53
2024-04-25T07:43:53.772Z,5.64
2024-04-25T07:46:21.228Z,5.42
2024-04-25T07:48:48.304Z,5.03
2024-04-25T07:51:15.308Z,4.36
2024-04-25T07:53:41.908Z,5.53
2024-04-25T07:56:08.461Z,5.92
2024-04-25T07:58:34.993Z,6.25
2024-04-25T08:01:01.595Z,6.44
2024-04-25T08:03:28.308Z,5.57
2024-04-25T08:05:55.009Z,5.66
2024-04-25T08:08:25.456Z,5.64
2024-04-25T08:10:52.720Z,5.76
2024-04-25T08:13:19.332Z,5.65
2024-04-25T08:15:45.932Z,5.51
2024-04-25T08:18:12.643Z,4.82
2024-04-25T08:20:39.231Z,5.01
2024-04-25T08:23:05.787Z,4.68
2024-04-25T08:25:32.346Z,5.17
2024-04-25T08:27:58.868Z,5.71
2024-04-25T08:30:25.411Z,5.92
2024-04-25T08:32:52.044Z,5.44
2024-04-25T08:35:18.667Z,5.45
2024-04-25T08:37:45.232Z,5.61
2024-04-25T08:40:11.811Z,4.87
2024-04-25T08:42:38.343Z,4.05
2024-04-25T08:45:04.892Z,4.64
2024-04-25T08:47:31.488Z,4.63
2024-04-25T08:49:58.074Z,4.66
2024-04-25T08:52:25.037Z,4.78
2024-04-25T08:54:51.973Z,5.49
2024-04-25T08:57:18.892Z,5.33
2024-04-25T08:59:45.855Z,5.30
2024-04-25T09:02:12.820Z,5.30
2024-04-25T09:04:39.752Z,5.56
2024-04-25T09:07:06.679Z,5.17
2024-04-25T09:09:33.587Z,5.84
2024-04-25T09:12:00.565Z,6.14
2024-04-25T09:14:27.547Z,5.41
2024-04-25T09:16:54.496Z,5.59
2024-04-25T09:19:21.399Z,5.64
2024-04-25T09:21:48.325Z,6.02
2024-04-25T09:24:15.266Z,6.37
2024-04-25T09:26:42.259Z,5.36
2024-04-25T09:29:09.264Z,5.60
2024-04-25T09:31:36.224Z,5.51
2024-04-25T09:34:03.319Z,5.05
2024-04-25T09:36:30.439Z,5.54
2024-04-25T09:38:57.350Z,5.07
2024-04-25T09:41:24.295Z,4.69
2024-04-25T09:43:51.235Z,4.69
2024-04-25T09:46:18.217Z,4.69
2024-04-25T09:48:45.175Z,4.50
2024-04-25T09:51:12.080Z,4.16
2024-04-25T09:53:39.160Z,4.39
2024-04-25T09:56:06.109Z,4.25
2024-04-25T09:58:33.052Z,4.66
2024-04-25T10:01:00.019Z,3.88
2024-04-25T10:03:27.037Z,3.82
2024-04-25T10:05:54.049Z,3.58
2024-04-25T10:08:21.025Z,3.47
2024-04-25T10:10:48.011Z,3.66
2024-04-25T10:13:14.934Z,3.68
2024-04-25T10:15:41.873Z,3.36
2024-04-25T10:18:08.884Z,3.36
2024-04-25T10:20:35.942Z,3.08
2024-04-25T10:23:02.900Z,3.09
2024-04-25T10:25:29.850Z,3.24
2024-04-25T10:27:56.791Z,3.50
2024-04-25T10:30:23.736Z,3.50
2024-04-25T10:32:51.760Z,3.48
2024-04-25T10:35:18.802Z,3.36
2024-04-25T10:37:47.950Z,3.24
2024-04-25T10:40:16.238Z,3.55
2024-04-25T10:42:43.211Z,3.52
2024-04-25T10:45:10.128Z,3.73
2024-04-25T10:47:37.190Z,4.21
2024-04-25T10:50:04.215Z,3.81
2024-04-25T10:52:31.152Z,3.68
2024-04-25T10:54:58.075Z,3.98
2024-04-25T10:57:25.034Z,3.83
2024-04-25T10:59:52.039Z,4.04
2024-04-25T11:02:19.015Z,3.82
2024-04-25T11:04:45.991Z,3.87
2024-04-25T11:07:12.917Z,3.95
2024-04-25T11:09:39.827Z,3.72
2024-04-25T11:12:07.703Z,4.06
2024-04-25T11:14:35.948Z,3.93
2024-04-25T11:17:02.879Z,3.86
2024-04-25T11:19:29.894Z,3.79
2024-04-25T11:21:59.385Z,4.03
2024-04-25T11:24:26.578Z,4.12
2024-04-25T11:26:53.168Z,4.23
2024-04-25T11:29:19.756Z,4.37
2024-04-25T11:31:46.348Z,5.09
2024-04-25T11:34:12.971Z,4.80
2024-04-25T11:36:39.546Z,5.74
2024-04-25T11:39:06.093Z,7.84
2024-04-25T11:41:32.744Z,4.83
2024-04-25T11:43:59.320Z,5.01
2024-04-25T11:46:25.865Z,6.33
2024-04-25T11:48:52.556Z,4.49
2024-04-25T11:51:19.118Z,4.47
2024-04-25T11:53:45.760Z,4.81
2024-04-25T11:56:12.346Z,4.77
2024-04-25T11:58:38.907Z,4.58
2024-04-25T12:01:05.587Z,4.83
2024-04-25T12:03:32.192Z,4.71
2024-04-25T12:05:58.943Z,7.03
2024-04-25T12:08:25.651Z,6.06
2024-04-25T12:10:52.254Z,4.58
2024-04-25T12:13:18.924Z,4.85
2024-04-25T12:15:45.517Z,4.71
2024-04-25T12:18:12.172Z,4.47
2024-04-25T12:20:38.850Z,4.63
2024-04-25T12:23:05.404Z,4.66
2024-04-25T12:25:32.313Z,4.64
2024-04-25T12:27:59.240Z,4.44
2024-04-25T12:30:26.154Z,4.14
2024-04-25T12:32:53.282Z,4.24
2024-04-25T12:35:20.263Z,4.70
2024-04-25T12:37:47.227Z,4.36
2024-04-25T12:40:14.202Z,5.16
2024-04-25T12:42:41.123Z,5.20
2024-04-25T12:45:08.025Z,4.49
2024-04-25T12:47:35.140Z,4.31
2024-04-25T12:50:02.263Z,4.73
2024-04-25T12:52:29.312Z,4.38
2024-04-25T12:54:56.216Z,4.39
2024-04-25T12:57:24.869Z,4.22
2024-04-25T12:59:52.328Z,4.26
2024-04-25T13:02:19.323Z,4.42
2024-04-25T13:04:46.283Z,3.94
2024-04-25T13:07:13.279Z,3.96
2024-04-25T13:09:40.188Z,3.90
2024-04-25T13:12:07.119Z,3.98
2024-04-25T13:14:34.110Z,4.10
2024-04-25T13:17:01.054Z,4.08
2024-04-25T13:19:28.075Z,4.37
2024-04-25T13:21:55.077Z,4.59
2024-04-25T13:24:22.015Z,4.40
2024-04-25T13:26:49.180Z,4.50
2024-04-25T13:29:16.414Z,4.52
2024-04-25T13:31:43.368Z,4.35
2024-04-25T13:34:10.396Z,4.59
2024-04-25T13:36:37.408Z,4.48
2024-04-25T13:39:04.353Z,4.07
2024-04-25T13:41:31.281Z,4.30
2024-04-25T13:43:58.232Z,4.08
2024-04-25T13:46:25.172Z,3.87
2024-04-25T13:48:52.216Z,3.69
2024-04-25T13:51:19.169Z,3.84
2024-04-25T13:53:46.206Z,3.90
2024-04-25T13:56:13.229Z,3.88
2024-04-25T13:58:40.177Z,3.72
2024-04-25T14:01:09.168Z,3.20
2024-04-25T14:03:36.341Z,4.01
2024-04-25T14:06:03.319Z,3.79
2024-04-25T14:08:30.346Z,3.63
2024-04-25T14:10:57.305Z,3.90
2024-04-25T14:13:24.252Z,3.53
2024-04-25T14:15:51.189Z,3.16
2024-04-25T14:18:18.252Z,3.56
2024-04-25T14:20:45.195Z,3.43
2024-04-25T14:23:12.127Z,3.31
2024-04-25T14:25:39.070Z,3.35
2024-04-25T14:28:06.007Z,3.20
2024-04-25T14:30:33.728Z,3.35
2024-04-25T14:33:00.925Z,3.31
2024-04-25T14:35:27.921Z,3.08
2024-04-25T14:37:54.925Z,2.99
2024-04-25T14:40:21.869Z,3.37
2024-04-25T14:42:48.773Z,3.32
2024-04-25T14:45:15.712Z,3.37
2024-04-25T14:47:42.778Z,3.06
2024-04-25T14:50:09.772Z,2.86
2024-04-25T14:52:36.692Z,2.60
2024-04-25T14:55:03.639Z,2.29
2024-04-25T14:57:30.571Z,2.30
2024-04-25T14:59:57.517Z,2.84
2024-04-25T15:02:24.493Z,2.93
2024-04-25T15:04:51.469Z,3.07
2024-04-25T15:07:18.390Z,2.43
2024-04-25T15:09:45.293Z,1.98
2024-04-25T15:12:12.399Z,1.89
2024-04-25T15:14:39.400Z,1.90
2024-04-25T15:17:06.353Z,1.96
2024-04-25T15:19:33.284Z,2.17
2024-04-25T15:22:00.191Z,1.78
2024-04-25T15:24:27.154Z,1.84
2024-04-25T15:26:54.120Z,1.95
2024-04-25T15:29:21.050Z,2.09
2024-04-25T15:31:47.973Z,1.98
2024-04-25T15:34:14.913Z,1.83
2024-04-25T15:36:41.881Z,1.87
2024-04-25T15:39:08.797Z,1.85
2024-04-25T15:41:35.727Z,1.87
2024-04-25T15:44:02.649Z,1.96
2024-04-25T15:46:29.574Z,1.97
2024-04-25T15:48:56.643Z,2.23
2024-04-25T15:51:23.670Z,2.56
2024-04-25T15:53:50.695Z,2.32
2024-04-25T15:56:17.696Z,2.09
2024-04-25T15:58:45.035Z,2.01
2024-04-25T16:01:12.117Z,2.39
2024-04-25T16:03:39.107Z,2.17
2024-04-25T16:06:06.122Z,2.31
2024-04-25T16:08:33.075Z,1.57
2024-04-25T16:11:00.074Z,1.68
2024-04-25T16:13:26.990Z,1.65
2024-04-25T16:15:53.912Z,1.75
2024-04-25T16:18:20.966Z,1.67
2024-04-25T16:20:47.993Z,1.60
2024-04-25T16:23:14.988Z,1.54
2024-04-25T16:25:41.936Z,1.67
2024-04-25T16:28:08.857Z,1.65
2024-04-25T16:30:35.766Z,1.66
2024-04-25T16:33:02.820Z,1.71
2024-04-25T16:35:29.938Z,1.56
2024-04-25T16:37:57.004Z,1.76
2024-04-25T16:40:23.909Z,1.68
2024-04-25T16:42:50.826Z,1.63
2024-04-25T16:45:17.790Z,1.87
2024-04-25T16:47:44.844Z,1.95
2024-04-25T16:50:11.833Z,1.90
2024-04-25T16:52:38.770Z,2.11
2024-04-25T16:55:05.711Z,2.43
2024-04-25T16:57:32.627Z,2.45
2024-04-25T16:59:59.549Z,2.99
2024-04-25T17:02:26.556Z,2.86
2024-04-25T17:04:53.533Z,2.84
2024-04-25T17:07:20.440Z,2.71
2024-04-25T17:09:47.392Z,2.39
2024-04-25T17:12:14.438Z,2.34
2024-04-25T17:14:41.497Z,3.05
2024-04-25T17:17:08.521Z,3.35
2024-04-25T17:19:35.489Z,2.73
2024-04-25T17:22:02.473Z,2.88
2024-04-25T17:24:29.393Z,2.64
2024-04-25T17:26:56.353Z,2.34
2024-04-25T17:29:23.340Z,2.17
2024-04-25T17:31:50.274Z,2.29
2024-04-25T17:34:17.316Z,2.91
2024-04-25T17:36:44.320Z,2.66
2024-04-25T17:39:11.240Z,2.73
2024-04-25T17:41:38.171Z,3.27
2024-04-25T17:44:05.123Z,3.00
2024-04-25T17:46:32.029Z,3.09
2024-04-25T17:48:59.204Z,3.14
2024-04-25T17:51:26.290Z,2.62
2024-04-25T17:53:53.367Z,3.09
2024-04-25T17:56:20.377Z,3.19
2024-04-25T17:58:47.315Z,2.96
2024-04-25T18:01:14.254Z,2.68
2024-04-25T18:03:41.196Z,2.98
2024-04-25T18:06:08.132Z,2.92
2024-04-25T18:08:35.069Z,2.79
2024-04-25T18:11:02.068Z,2.19
2024-04-25T18:13:29.053Z,2.11
2024-04-25T18:15:55.988Z,2.00
2024-04-25T18:18:23.195Z,2.17
2024-04-25T18:20:50.391Z,2.16
2024-04-25T18:23:17.607Z,2.21
2024-04-25T18:25:46.046Z,2.33
2024-04-25T18:28:13.153Z,2.64
2024-04-25T18:30:40.077Z,2.50
2024-04-25T18:33:07.110Z,2.61
2024-04-25T18:35:34.121Z,2.47
2024-04-25T18:38:01.107Z,2.58
2024-04-25T18:40:28.083Z,2.37
2024-04-25T18:42:55.001Z,2.33
2024-04-25T18:45:21.908Z,2.63
2024-04-25T18:47:48.978Z,2.57
2024-04-25T18:50:15.971Z,2.53
2024-04-25T18:52:42.916Z,2.43
2024-04-25T18:55:09.857Z,2.37
2024-04-25T18:57:36.801Z,2.70
2024-04-25T19:00:03.744Z,2.55
2024-04-25T19:02:30.730Z,2.73
2024-04-25T19:04:57.651Z,2.44
2024-04-25T19:07:24.600Z,2.60
2024-04-25T19:09:51.539Z,2.49
2024-04-25T19:12:18.467Z,2.49
2024-04-25T19:14:45.472Z,2.56
2024-04-25T19:17:12.460Z,2.37
2024-04-25T19:19:39.383Z,2.54
2024-04-25T19:22:06.319Z,2.47
2024-04-25T19:24:33.248Z,2.36
2024-04-25T19:27:00.206Z,2.37
2024-04-25T19:29:29.390Z,2.43
2024-04-25T19:31:57.903Z,2.44
2024-04-25T19:34:25.127Z,2.40
2024-04-25T19:36:52.081Z,2.34
2024-04-25T19:39:19.001Z,2.24
